New Market, IN (47965)

7:51 PM EDT on May 04, 2015 (GMT -0400)
Winslow Drive | | Change Station
CLOSE
Current Station
Personal Weather Station
Location: Crawfordsville, IN
Elevation: 725 ft
Nearby Weather Stations
Active Advisory: Severe Thunderstorm Warning Active Notice: Local Storm Report

Elev 725 ft 40.04 °N, 86.95 °W | Updated 13 seconds ago

Mostly Cloudy
Mostly Cloudy
62.2 °F
Feels Like 62.2 °F
N
0.0
Wind Variable Wind from SE
Gusts 0.0 mph

Today
High -- | Low -- °F
--% Chance of Precip.
Yesterday
High -- | Low -- °F
Precip. -- in
6:44 AM 8:45 PM
Full, 99% visible
Pressure 30.13 in
Visibility 4.0 miles
Clouds Scattered Clouds 8000 ft
Overcast 10000 ft
Dew Point 61 °F
Humidity 96%
Rainfall 0.05 in
Snow Depth Not available.
UV 0.0 out of 12
Pollen 10.40 out of 12
Air Quality Not available.
Flu Activity Local Activity
SPECI KLAF 042304Z 12006KT 4SM -RA BR SCT080 OVC100 17/17 A3013 RMK AO2 LTG DSNT E-S P0001 T01720167

More Conditions Fewer Conditions

Pressure 30.13 in
Visibility 4.0 miles
Clouds Scattered Clouds 8000 ft
Overcast 10000 ft
Dew Point 61 °F
Humidity 96%
Rainfall 0.05 in
Snow Depth Not available.
UV 0.0 out of 12
Pollen 10.40 out of 12
Air Quality Not available.
Flu Activity Local Activity
SPECI KLAF 042304Z 12006KT 4SM -RA BR SCT080 OVC100 17/17 A3013 RMK AO2 LTG DSNT E-S P0001 T01720167

More Conditions Fewer Conditions

Nepal has a long way to go to dig out and rebuild from a devastating earthquake. We have teamed up with several charities and organizations to make contributing to the relief effort as easy as possible.
How you can help: Portlight Strategies | Red Cross

10-Day Weather Forecast

Almanac

Astronomy

May. 04, 2015 Rise Set
Actual Time
Civil Twilight
Nautical Twilight
Astronomical Twilight
Moon
Length of Visible Light
Length of Day
Tomorrow will be .
, % of the Moon is Illuminated

Today's Extremes

State Highs State Lows

Community

WunderPhotos

Upload Photos

1,818,737 photos uploaded!

WunderBlogs® & News

Nearby

Air Quality

  Air Quality AQ Index Pollutant
Not available.

Snow Depth

Station Depth Elevation

Earthquake Activity

City Distance Mag. Time & Date
Minimum magnitude displayed is 2.5.

Coastal Water Temperatures

Place Temperature

Stations

Nearby Weather Stations

Station Location Temp. Windchill Dew Point Humidity Wind Precip. Elev Updated Type
                   
Severe Thunderstorm Warning
Statement as of 6:21 PM EDT on May 04, 2015

... The Severe Thunderstorm Warning for northeastern Montgomery and
southeastern Tippecanoe counties is cancelled...

The storm which prompted the warning has moved out of the warned
area.

Lat... Lon 4005 8646 4007 8669 4027 8669 4027 8644
time... Mot... loc 2221z 271deg 22kt 4016 8662